Time;durP1;ratioP1;P1;durP2;ratioP2;P2;SDS_P1;SDS_P2;PMS_P1;PMS_P2;Temp;Humidity;BMP_temperature;BMP_pressure;BME280_temperature;BME280_humidity;BME280_pressure;Samples;Min_cycle;Max_cycle;Signal;HPM_P1;HPM_P2
2022/05/06 00:01:23;;;;;;;;;;;;;;;9.19;42.13;100565.73;1817966;79;21518;-72
2022/05/06 00:03:49;;;;;;;4.85;2.95;;;;;;;9.15;42.34;100566.56;1810809;79;20182;-76
2022/05/06 00:06:16;;;;;;;11.75;3.15;;;;;;;9.08;42.35;100562.77;1792374;79;21398;-75
2022/05/06 00:08:43;;;;;;;6.72;2.83;;;;;;;9.03;42.38;100562.25;1795128;79;21029;-73
2022/05/06 00:11:11;;;;;;;9.78;3.80;;;;;;;9.00;42.90;100557.33;1799019;79;21005;-69
2022/05/06 00:13:42;;;;;;;14.07;3.50;;;;;;;9.00;43.28;100562.82;1798692;79;20956;-69
2022/05/06 00:16:15;;;;;;;6.92;3.40;;;;;;;8.98;43.54;100560.91;1799466;79;21024;-76
2022/05/06 00:18:42;;;;;;;11.97;3.10;;;;;;;8.93;43.58;100563.13;1799527;79;20988;-70
2022/05/06 00:21:09;;;;;;;9.43;3.80;;;;;;;8.88;44.47;100566.74;1799224;79;20958;-72
2022/05/06 00:23:40;;;;;;;6.28;3.42;;;;;;;8.82;45.17;100572.55;1799037;79;21027;-68
2022/05/06 00:26:07;;;;;;;6.53;3.47;;;;;;;8.74;45.35;100572.02;1799578;79;22263;-68
2022/05/06 00:28:36;;;;;;;4.72;3.27;;;;;;;8.69;46.03;100568.47;1798974;79;21004;-69
2022/05/06 00:31:03;;;;;;;5.92;3.55;;;;;;;8.65;45.69;100568.20;1799332;79;21563;-70
2022/05/06 00:33:31;;;;;;;5.15;3.20;;;;;;;8.61;45.72;100580.88;1799064;79;21551;-68
2022/05/06 00:36:01;;;;;;;6.97;3.33;;;;;;;8.55;45.97;100575.11;1799133;79;21378;-69
2022/05/06 00:38:31;;;;;;;5.05;3.05;;;;;;;8.51;46.52;100571.52;1799490;79;21094;-70
2022/05/06 00:40:59;;;;;;;10.78;4.12;;;;;;;8.47;46.07;100571.83;1768765;79;21390;-77
2022/05/06 00:43:27;;;;;;;7.28;3.92;;;;;;;8.46;46.23;100573.48;1799031;79;21020;-69
2022/05/06 00:45:59;;;;;;;9.40;3.75;;;;;;;8.44;46.07;100572.39;1799130;79;20964;-73
2022/05/06 00:48:28;;;;;;;11.70;4.70;;;;;;;8.42;46.23;100575.14;1799276;79;21053;-70
2022/05/06 00:50:58;;;;;;;10.03;3.55;;;;;;;8.40;46.11;100572.67;1799310;79;20882;-68
2022/05/06 00:53:26;;;;;;;8.20;3.62;;;;;;;8.38;46.09;100569.37;1761823;79;20996;-75
2022/05/06 00:55:56;;;;;;;11.38;3.80;;;;;;;8.36;45.79;100568.28;1730609;82;21064;-71
2022/05/06 00:58:25;;;;;;;8.43;3.33;;;;;;;8.37;46.01;100565.00;1732266;82;21481;-69
2022/05/06 01:00:52;;;;;;;7.78;3.62;;;;;;;8.36;46.00;100556.50;1740128;82;21041;-70
2022/05/06 01:03:22;;;;;;;6.33;3.22;;;;;;;8.38;45.98;100562.51;1709676;82;21515;-69
2022/05/06 01:05:52;;;;;;;6.42;3.62;;;;;;;8.40;45.95;100557.56;1738454;82;20978;-75
2022/05/06 01:08:19;;;;;;;7.15;3.55;;;;;;;8.37;45.92;100554.02;1708983;82;21013;-70
2022/05/06 01:10:48;;;;;;;7.67;3.60;;;;;;;8.33;45.90;100563.36;1715029;80;21001;-72
2022/05/06 01:13:21;;;;;;;7.67;3.47;;;;;;;8.32;46.09;100562.27;1788330;78;21011;-69
2022/05/06 01:15:49;;;;;;;10.00;3.45;;;;;;;8.30;46.45;100564.46;1786105;80;21074;-76
2022/05/06 01:18:20;;;;;;;8.78;3.67;;;;;;;8.28;46.28;100561.45;1796924;79;21054;-68
2022/05/06 01:20:51;;;;;;;11.20;3.75;;;;;;;8.28;46.29;100564.20;1771360;79;21085;-67
2022/05/06 01:23:21;;;;;;;4.97;2.92;;;;;;;8.28;46.25;100564.74;1802077;79;20920;-69
2022/05/06 01:25:50;;;;;;;5.80;3.65;;;;;;;8.23;47.27;100564.21;1802677;79;21010;-70
2022/05/06 01:28:16;;;;;;;7.75;3.33;;;;;;;8.16;47.32;100567.79;1802338;79;21445;-75
2022/05/06 01:30:46;;;;;;;13.68;3.08;;;;;;;8.10;47.57;100575.20;1802398;79;21479;-68
2022/05/06 01:33:21;;;;;;;9.05;3.65;;;;;;;8.06;47.93;100571.92;1802948;79;21472;-70
2022/05/06 01:36:05;;;;;;;8.10;3.25;;;;;;;8.02;48.00;100569.74;1823479;78;21070;-74
2022/05/06 01:38:49;;;;;;;5.67;3.33;;;;;;;8.01;48.82;100568.65;1801930;79;21015;-71
2022/05/06 01:41:21;;;;;;;5.92;3.33;;;;;;;7.84;49.46;100564.28;1802662;79;21225;-70
2022/05/06 01:43:57;;;;;;;9.25;3.92;;;;;;;7.67;49.88;100568.69;1797463;79;21594;-72
2022/05/06 01:46:27;;;;;;;5.80;3.22;;;;;;;7.57;50.45;100565.94;1800755;79;21012;-71
2022/05/06 01:48:58;;;;;;;6.58;3.67;;;;;;;7.52;51.02;100570.88;1792831;78;22329;-74
2022/05/06 01:51:31;;;;;;;8.20;3.98;;;;;;;7.49;51.44;100576.92;1789405;80;20976;-68
2022/05/06 01:54:00;;;;;;;9.65;3.90;;;;;;;7.40;51.85;100582.11;1785533;80;21634;-77
2022/05/06 01:56:28;;;;;;;5.92;3.35;;;;;;;7.36;52.08;100576.89;1789068;80;20987;-73
2022/05/06 01:58:57;;;;;;;7.78;3.67;;;;;;;7.35;51.94;100586.22;1788558;80;21070;-68
2022/05/06 02:01:26;;;;;;;8.63;3.50;;;;;;;7.35;51.62;100588.97;1783717;79;20970;-70
2022/05/06 02:06:39;;;;;;;8.88;3.70;;;;;;;7.30;51.29;100583.73;1783598;80;21101;-70
2022/05/06 02:09:07;;;;;;;9.03;4.25;;;;;;;7.24;51.00;100589.48;1784045;79;21394;-71
2022/05/06 02:11:40;;;;;;;7.15;4.15;;;;;;;7.20;51.06;100585.08;1785118;79;21012;-69
2022/05/06 02:14:10;;;;;;;7.58;4.05;;;;;;;7.14;51.57;100590.29;1783287;79;20945;-75
2022/05/06 02:16:38;;;;;;;14.65;3.77;;;;;;;7.12;52.43;100585.62;1787013;78;20980;-69
2022/05/06 02:19:16;;;;;;;8.33;4.08;;;;;;;7.10;52.61;100580.95;1738337;82;21774;-71
2022/05/06 02:21:48;;;;;;;7.00;3.72;;;;;;;7.05;53.12;100579.86;1794232;79;21039;-69
2022/05/06 02:24:26;;;;;;;10.43;4.35;;;;;;;7.03;53.47;100583.95;1766372;81;21031;-72
2022/05/06 02:27:12;;;;;;;15.95;4.65;;;;;;;7.01;53.54;100583.41;1766631;81;21017;-69
2022/05/06 02:33:12;;;;;;;12.10;4.20;;;;;;;7.00;53.48;100587.23;1802645;79;21082;-74
2022/05/06 02:35:04;;;;;;;9.05;4.10;;;;;;;7.01;53.03;100595.75;1803932;79;21523;-73
2022/05/06 02:37:35;;;;;;;10.03;4.45;;;;;;;7.02;52.70;100598.22;1802551;79;20927;-69
2022/05/06 02:40:03;;;;;;;10.20;4.83;;;;;;;7.06;52.25;100595.20;1802366;79;21456;-71
2022/05/06 02:42:31;;;;;;;11.60;4.87;;;;;;;7.10;52.15;100598.77;1802840;79;21022;-68
2022/05/06 02:44:59;;;;;;;11.97;5.12;;;;;;;7.10;51.90;100600.97;1803283;79;21039;-72
2022/05/06 02:47:27;;;;;;;8.73;4.30;;;;;;;7.12;51.92;100601.53;1802258;79;21109;-71
2022/05/06 02:49:55;;;;;;;10.70;4.72;;;;;;;7.14;51.70;100598.52;1802582;79;20991;-70
2022/05/06 02:52:24;;;;;;;10.50;4.65;;;;;;;7.16;52.39;100600.44;1802412;79;21503;-68
2022/05/06 02:54:51;;;;;;;11.63;4.85;;;;;;;7.13;52.43;100599.05;1802656;79;21535;-68
2022/05/06 02:57:19;;;;;;;11.03;4.47;;;;;;;7.12;52.50;100603.44;1802195;79;21523;-69
2022/05/06 02:59:47;;;;;;;8.68;4.20;;;;;;;7.11;52.43;100599.89;1775735;79;21535;-74
2022/05/06 03:02:15;;;;;;;8.63;4.65;;;;;;;7.14;52.04;100595.77;1802622;79;20983;-66
2022/05/06 03:04:44;;;;;;;8.95;4.42;;;;;;;7.16;52.03;100594.95;1802211;79;21476;-72
2022/05/06 03:07:15;;;;;;;10.40;5.40;;;;;;;7.19;51.75;100597.16;1802453;79;20979;-68
2022/05/06 03:09:46;;;;;;;10.15;5.70;;;;;;;7.20;51.75;100596.05;1802678;79;21018;-72
2022/05/06 03:12:16;;;;;;;11.00;5.25;;;;;;;7.27;51.93;100594.41;1802413;79;21031;-72
2022/05/06 03:14:50;;;;;;;12.13;5.90;;;;;;;7.33;51.78;100593.89;1802381;79;20987;-71
2022/05/06 03:17:32;;;;;;;8.90;4.85;;;;;;;7.39;51.73;100601.84;1801918;79;21535;-74
2022/05/06 03:19:59;;;;;;;17.52;5.70;;;;;;;7.45;52.01;100601.86;1793466;79;21016;-76
2022/05/06 03:22:31;;;;;;;12.00;5.83;;;;;;;7.53;51.98;100600.78;1793569;80;21148;-76
2022/05/06 03:24:59;;;;;;;10.60;5.22;;;;;;;7.62;51.80;100600.23;1804173;79;21495;-75
2022/05/06 03:30:12;;;;;;;12.03;4.65;;;;;;;7.75;51.82;100602.96;1793573;79;21003;-72
2022/05/06 03:32:42;;;;;;;12.80;5.10;;;;;;;7.83;51.84;100601.61;1814352;78;21011;-67
2022/05/06 03:35:13;;;;;;;10.23;5.15;;;;;;;7.91;51.73;100604.62;1800195;78;21044;-73
2022/05/06 03:37:44;;;;;;;12.60;5.37;;;;;;;8.01;51.68;100606.53;1829464;78;21016;-74
2022/05/06 03:40:12;;;;;;;10.50;5.17;;;;;;;8.10;51.61;100615.01;1800425;78;21052;-72
2022/05/06 03:42:41;;;;;;;10.68;4.83;;;;;;;8.19;51.59;100616.65;1829854;78;20957;-68
2022/05/06 03:45:09;;;;;;;11.57;5.17;;;;;;;8.28;51.49;100624.61;1829726;78;20910;-71
2022/05/06 03:47:43;;;;;;;10.78;5.20;;;;;;;8.35;51.32;100626.23;1785753;79;20928;-67
2022/05/06 03:52:58;;;;;;;11.12;5.47;;;;;;;8.52;50.99;100626.75;1760178;81;21034;-67
2022/05/06 03:55:26;;;;;;;11.20;5.45;;;;;;;8.60;50.72;100624.55;1760341;81;20983;-71
2022/05/06 03:57:54;;;;;;;11.85;4.80;;;;;;;8.68;50.68;100628.66;1760309;81;21053;-73
2022/05/06 04:00:27;;;;;;;20.75;5.62;;;;;;;8.72;50.42;100626.98;1760318;81;21128;-69
2022/05/06 04:02:55;;;;;;;;;;;;;;;8.79;50.34;100623.92;1795536;79;20976;-74
2022/05/06 04:05:28;;;;;;;14.18;5.35;;;;;;;8.83;50.22;100629.14;1762123;81;20616;-73
2022/05/06 04:07:59;;;;;;;15.32;5.12;;;;;;;8.87;50.26;100632.99;1793181;80;21120;-71
2022/05/06 04:10:26;;;;;;;12.50;5.97;;;;;;;8.96;50.14;100640.08;1793391;80;21041;-77
2022/05/06 04:12:55;;;;;;;10.60;4.72;;;;;;;9.03;49.78;100646.09;1793366;80;21493;-76
2022/05/06 04:15:25;;;;;;;15.60;5.60;;;;;;;9.05;49.54;100637.02;1764427;80;21013;-72
2022/05/06 04:17:57;;;;;;;12.70;5.55;;;;;;;9.10;49.40;100638.38;1764441;80;21501;-75
2022/05/06 04:23:30;;;;;;;18.82;4.72;;;;;;;9.24;49.29;100636.38;1736490;80;21080;-68
2022/05/06 04:26:05;;;;;;;10.85;5.08;;;;;;;9.31;49.16;100630.02;1787337;80;21159;-66
2022/05/06 04:28:37;;;;;;;12.55;4.60;;;;;;;9.41;48.81;100640.13;1782391;80;21017;-68
2022/05/06 04:31:06;;;;;;;8.50;4.67;;;;;;;9.47;48.67;100636.77;1787734;80;20969;-72
2022/05/06 04:33:38;;;;;;;8.30;4.12;;;;;;;9.55;48.35;100640.32;1787578;80;20989;-75
2022/05/06 04:36:12;;;;;;;6.80;4.00;;;;;;;9.61;48.26;100639.71;1785592;80;20966;-76
2022/05/06 04:38:45;;;;;;;8.93;4.33;;;;;;;9.67;48.18;100641.88;1786760;80;21092;-75
2022/05/06 04:41:13;;;;;;;8.48;4.78;;;;;;;9.72;47.85;100648.15;1754728;81;21000;-73
2022/05/06 04:43:42;;;;;;;9.10;4.05;;;;;;;9.77;47.39;100642.35;1754647;81;21073;-75
2022/05/06 04:46:09;;;;;;;7.90;3.90;;;;;;;9.81;47.42;100651.70;1754060;80;21095;-69
2022/05/06 04:48:42;;;;;;;11.50;4.05;;;;;;;9.85;47.06;100651.37;1751761;79;21036;-68
2022/05/06 04:51:15;;;;;;;9.00;3.85;;;;;;;9.90;46.75;100647.75;1790958;78;21196;-68
2022/05/06 04:53:46;;;;;;;10.30;4.42;;;;;;;9.95;46.88;100651.29;1754689;78;21475;-68
2022/05/06 04:56:12;;;;;;;8.68;4.20;;;;;;;9.98;46.61;100654.84;1803896;78;20971;-68
2022/05/06 04:58:45;;;;;;;11.25;4.97;;;;;;;10.04;46.41;100656.17;1800410;78;21015;-72
2022/05/06 05:01:15;;;;;;;;;;;;;;;10.11;46.47;100658.05;1795147;78;21076;-69
2022/05/06 05:03:42;;;;;;;11.80;4.92;;;;;;;10.17;46.22;100654.13;1795634;78;21032;-74
2022/05/06 05:06:12;;;;;;;9.63;4.97;;;;;;;10.24;46.30;100655.16;1761845;79;20976;-69
2022/05/06 05:08:42;;;;;;;10.88;5.03;;;;;;;10.32;46.21;100657.86;1788488;78;21325;-72
2022/05/06 05:11:12;;;;;;;11.53;4.50;;;;;;;10.38;46.18;100653.93;1794392;78;21470;-70
2022/05/06 05:13:49;;;;;;;6.73;4.10;;;;;;;10.43;46.20;100652.50;1796794;78;21054;-72
2022/05/06 05:16:18;;;;;;;15.25;5.20;;;;;;;10.51;46.31;100658.53;1797026;78;21301;-69
2022/05/06 05:18:45;;;;;;;12.28;4.92;;;;;;;10.59;45.95;100658.69;1810797;78;21393;-68
2022/05/06 05:21:15;;;;;;;9.60;4.03;;;;;;;10.67;46.01;100666.06;1755294;80;21039;-67
2022/05/06 05:23:44;;;;;;;10.63;4.45;;;;;;;10.76;46.19;100664.86;1776856;80;21079;-71
2022/05/06 05:26:13;;;;;;;12.23;4.20;;;;;;;10.85;46.30;100666.42;1776900;79;21052;-70
2022/05/06 05:28:42;;;;;;;8.33;4.00;;;;;;;10.93;46.07;100662.46;1764872;80;21451;-73
2022/05/06 05:31:13;;;;;;;12.47;4.47;;;;;;;10.99;46.18;100660.44;1772621;79;20928;-71
2022/05/06 05:33:43;;;;;;;10.40;4.42;;;;;;;11.07;45.88;100660.36;1782836;79;20998;-71
2022/05/06 05:36:13;;;;;;;7.40;3.85;;;;;;;11.18;45.37;100662.41;1791554;79;20928;-67
2022/05/06 05:38:46;;;;;;;11.90;3.85;;;;;;;11.27;45.06;100669.47;1775810;79;21098;-76
2022/05/06 05:41:16;;;;;;;12.50;4.28;;;;;;;11.35;44.54;100669.36;1776490;79;21168;-69
2022/05/06 05:49:21;;;;;;;11.60;4.30;;;;;;;11.56;43.65;100672.66;1777926;79;21014;-71
2022/05/06 05:51:52;;;;;;;9.85;3.20;;;;;;;11.63;43.30;100670.35;1745026;80;21042;-69
2022/05/06 05:54:19;;;;;;;17.92;3.70;;;;;;;11.71;42.85;100658.35;1714017;80;21488;-69
2022/05/06 05:56:47;;;;;;;9.10;3.62;;;;;;;11.77;42.73;100663.48;1759546;80;20960;-69
2022/05/06 05:59:17;;;;;;;9.15;3.90;;;;;;;11.83;42.40;100661.48;1795406;78;20992;-72
2022/05/06 06:01:50;;;;;;;11.90;4.15;;;;;;;11.90;42.27;100665.23;1791887;78;20986;-68
2022/05/06 06:04:19;;;;;;;6.87;3.25;;;;;;;11.96;42.11;100665.98;1810873;78;21031;-67
2022/05/06 06:06:50;;;;;;;9.90;3.70;;;;;;;11.98;42.21;100665.93;1767746;79;21110;-73
2022/05/06 06:09:24;;;;;;;7.03;3.10;;;;;;;12.04;41.41;100661.15;1786181;78;21436;-73
2022/05/06 06:12:02;;;;;;;12.40;3.85;;;;;;;12.12;41.46;100659.11;1777168;79;21314;-68
2022/05/06 06:14:30;;;;;;;8.00;3.05;;;;;;;12.22;41.43;100660.03;1805204;79;21330;-77
2022/05/06 06:16:58;;;;;;;7.67;3.45;;;;;;;12.32;41.18;100661.81;1802595;79;21031;-74
2022/05/06 06:19:26;;;;;;;8.93;3.65;;;;;;;12.40;40.98;100659.14;1802441;79;21787;-68
2022/05/06 06:21:57;;;;;;;4.53;3.00;;;;;;;12.48;41.07;100656.81;1771547;79;21471;-73
2022/05/06 06:24:27;;;;;;;14.53;2.80;;;;;;;12.57;40.91;100666.05;1750675;80;21071;-71
2022/05/06 06:26:58;;;;;;;5.30;2.70;;;;;;;12.65;40.60;100666.72;1749031;82;21058;-70
2022/05/06 06:29:29;;;;;;;7.37;2.67;;;;;;;12.73;40.60;100668.49;1748928;82;21015;-71
2022/05/06 06:31:58;;;;;;;5.78;2.65;;;;;;;12.79;40.20;100667.28;1774955;78;21146;-66
2022/05/06 06:34:34;;;;;;;6.42;2.33;;;;;;;12.86;39.83;100662.14;1800993;78;20984;-72
2022/05/06 06:37:03;;;;;;;6.05;2.70;;;;;;;12.94;39.69;100665.32;1788735;79;21057;-73
2022/05/06 06:39:36;;;;;;;7.95;2.90;;;;;;;13.02;39.81;100665.42;1762222;80;21034;-78
2022/05/06 06:42:11;;;;;;;6.15;2.50;;;;;;;13.12;39.92;100667.15;1801501;78;21017;-69
2022/05/06 06:44:42;;;;;;;4.20;2.42;;;;;;;13.22;39.73;100663.33;1798612;78;21236;-68
2022/05/06 06:47:11;;;;;;;5.62;2.25;;;;;;;13.31;39.69;100660.66;1801703;78;21024;-66
2022/05/06 06:49:48;;;;;;;9.95;2.77;;;;;;;13.35;39.57;100660.30;1769354;78;21365;-72
2022/05/06 06:52:24;;;;;;;6.17;2.47;;;;;;;13.45;40.02;100662.57;1796314;79;21067;-72
2022/05/06 06:54:56;;;;;;;6.15;2.52;;;;;;;13.56;39.59;100664.00;1798341;78;20973;-69
2022/05/06 06:57:23;;;;;;;8.43;2.30;;;;;;;13.67;39.01;100670.13;1801072;78;21280;-69
2022/05/06 06:59:50;;;;;;;5.17;2.22;;;;;;;13.78;38.85;100667.94;1774328;79;20973;-76
2022/05/06 07:02:20;;;;;;;7.05;2.58;;;;;;;13.87;38.74;100670.20;1797631;78;21110;-75
2022/05/06 07:04:48;;;;;;;5.55;2.00;;;;;;;13.97;38.75;100670.50;1773283;79;20981;-71
2022/05/06 07:12:56;;;;;;;2.92;1.82;;;;;;;14.27;37.69;100670.05;1799692;78;21000;-67
2022/05/06 07:15:29;;;;;;;4.92;1.50;;;;;;;14.39;37.60;100670.02;1801971;79;22324;-67
2022/05/06 07:18:03;;;;;;;7.60;2.15;;;;;;;14.41;36.35;100666.38;1798587;78;22152;-75
2022/05/06 07:20:30;;;;;;;4.35;2.02;;;;;;;14.44;35.70;100664.34;1799487;78;21030;-66
2022/05/06 07:22:59;;;;;;;10.03;2.45;;;;;;;14.53;35.88;100671.33;1753778;80;21051;-73
2022/05/06 07:25:28;;;;;;;1.50;1.30;;;;;;;14.60;34.59;100668.33;1784937;79;21036;-71
2022/05/06 07:27:58;;;;;;;4.30;1.72;;;;;;;14.71;33.52;100672.20;1790941;79;21468;-73
2022/05/06 07:30:28;;;;;;;3.37;1.67;;;;;;;14.80;33.16;100666.70;1751849;80;21072;-71
2022/05/06 07:32:54;;;;;;;5.40;1.50;;;;;;;14.88;33.33;100665.11;1755149;81;21032;-71
2022/05/06 07:35:24;;;;;;;6.58;2.30;;;;;;;14.99;33.38;100673.97;1769719;81;21118;-73
2022/05/06 07:37:52;;;;;;;6.45;2.10;;;;;;;15.07;33.04;100670.39;1790643;79;20946;-74
2022/05/06 07:40:21;;;;;;;2.52;1.87;;;;;;;15.11;32.89;100662.25;1771608;81;20932;-67
2022/05/06 07:42:51;;;;;;;2.52;1.98;;;;;;;15.15;33.05;100663.25;1771176;79;21023;-71
2022/05/06 07:45:20;;;;;;;14.15;2.58;;;;;;;15.25;33.49;100663.50;1766200;81;20947;-68
2022/05/06 07:47:50;;;;;;;2.75;1.70;;;;;;;15.30;32.30;100661.37;1772422;81;21106;-72
2022/05/06 07:50:19;;;;;;;6.53;1.90;;;;;;;15.31;32.50;100669.13;1739644;81;20940;-71
2022/05/06 07:52:45;;;;;;;5.33;1.75;;;;;;;15.40;31.79;100669.16;1771696;81;21017;-68
2022/05/06 07:55:15;;;;;;;3.22;1.90;;;;;;;15.46;31.26;100656.73;1771155;79;21079;-68
2022/05/06 07:57:42;;;;;;;4.58;1.95;;;;;;;15.51;31.29;100655.19;1737779;81;21004;-74
2022/05/06 08:00:10;;;;;;;2.90;2.00;;;;;;;15.59;30.62;100657.73;1771346;79;21581;-69
2022/05/06 08:05:29;;;;;;;4.58;2.52;;;;;;;15.73;30.37;100656.75;1769576;79;20999;-69
2022/05/06 08:08:01;;;;;;;4.53;1.93;;;;;;;15.80;29.99;100662.05;1767312;81;20925;-69
2022/05/06 08:10:28;;;;;;;3.45;1.80;;;;;;;15.81;30.51;100647.59;1741912;81;20962;-67
2022/05/06 08:13:01;;;;;;;1.92;1.50;;;;;;;15.78;29.66;100651.03;1769737;81;21483;-66
2022/05/06 08:15:28;;;;;;;4.47;2.02;;;;;;;15.77;30.71;100647.42;1771530;81;21021;-74
2022/05/06 08:18:03;;;;;;;4.33;1.90;;;;;;;15.84;31.23;100646.09;1741604;81;21008;-71
2022/05/06 08:20:30;;;;;;;1.77;1.60;;;;;;;15.94;31.03;100656.88;1767673;79;21582;-70
2022/05/06 08:22:57;;;;;;;6.42;1.80;;;;;;;16.02;31.06;100650.52;1756532;79;20974;-68
2022/05/06 08:25:27;;;;;;;3.08;1.35;;;;;;;16.14;31.50;100647.06;1785352;79;20975;-67
2022/05/06 08:27:53;;;;;;;5.12;1.77;;;;;;;16.23;30.54;100651.77;1769038;81;20975;-70
2022/05/06 08:30:20;;;;;;;5.72;2.02;;;;;;;16.18;30.55;100649.44;1785470;80;20935;-67
2022/05/06 08:32:48;;;;;;;6.05;1.65;;;;;;;16.26;30.61;100649.16;1785192;80;20933;-67
2022/05/06 08:35:14;;;;;;;4.95;2.05;;;;;;;16.34;30.13;100652.25;1769460;81;21031;-68
2022/05/06 08:37:46;;;;;;;23.75;4.70;;;;;;;16.37;29.83;100654.36;1738852;81;22329;-67
2022/05/06 08:40:20;;;;;;;7.92;2.20;;;;;;;16.39;29.93;100644.52;1785710;80;20928;-71
2022/05/06 08:42:51;;;;;;;4.65;1.85;;;;;;;16.49;30.72;100641.97;1767391;81;21559;-68
2022/05/06 08:50:57;;;;;;;9.95;2.47;;;;;;;16.83;30.33;100637.14;1761265;80;21019;-70
2022/05/06 08:53:36;;;;;;;6.30;2.20;;;;;;;16.84;30.90;100641.58;1788512;79;21027;-67
2022/05/06 08:56:07;;;;;;;7.97;2.00;;;;;;;16.89;31.15;100632.44;1790324;78;21582;-66
2022/05/06 08:58:37;;;;;;;2.33;1.70;;;;;;;17.01;30.95;100637.84;1764120;78;21020;-67
2022/05/06 09:01:10;;;;;;;3.95;1.80;;;;;;;17.10;28.42;100622.52;1789185;79;21032;-67
2022/05/06 09:03:41;;;;;;;5.05;2.37;;;;;;;16.97;29.74;100628.56;1770054;79;21874;-68
2022/05/06 09:06:18;;;;;;;;;;;;;;;17.00;29.93;100625.92;1797022;79;21015;-71
2022/05/06 09:08:48;;;;;;;2.35;1.45;;;;;;;17.04;30.04;100615.72;1786237;79;20239;-70
2022/05/06 09:12:40;;;;;;;2.60;1.72;;;;;;;17.12;29.66;100610.47;1782427;79;21011;-69
2022/05/06 09:13:55;;;;;;;3.22;2.02;;;;;;;17.13;29.18;100614.30;1785728;79;21053;-68
2022/05/06 09:16:42;;;;;;;4.97;1.80;;;;;;;17.14;29.18;100604.78;1785186;79;21220;-70
2022/05/06 09:19:24;;;;;;;7.90;1.70;;;;;;;17.22;28.78;100611.47;1793190;79;21475;-70
2022/05/06 09:22:17;;;;;;;3.22;1.60;;;;;;;17.24;28.38;100607.77;1766703;79;21018;-68
2022/05/06 09:24:47;;;;;;;2.85;1.57;;;;;;;17.25;28.77;100608.00;1766193;79;20984;-68
2022/05/06 09:27:23;;;;;;;6.22;1.80;;;;;;;17.35;29.51;100602.59;1783951;79;20865;-67
2022/05/06 09:29:54;;;;;;;4.22;2.02;;;;;;;17.44;29.28;100598.34;1765431;79;21515;-68
2022/05/06 09:32:31;;;;;;;6.28;2.30;;;;;;;17.52;29.21;100595.23;1782980;80;20899;-70
2022/05/06 09:35:11;;;;;;;4.72;2.42;;;;;;;17.64;29.48;100595.29;1790036;80;20964;-72
2022/05/06 09:37:44;;;;;;;2.90;1.90;;;;;;;17.78;29.35;100594.75;1784429;80;21038;-70
2022/05/06 09:40:22;;;;;;;7.30;2.12;;;;;;;17.89;29.55;100593.97;1763785;78;21046;-73
2022/05/06 09:43:00;;;;;;;9.13;2.77;;;;;;;18.04;29.75;100598.67;1783953;80;21067;-70
2022/05/06 09:45:37;;;;;;;3.72;2.30;;;;;;;18.13;29.36;100593.03;1783197;80;20904;-71
2022/05/06 09:48:02;;;;;;;8.03;2.83;;;;;;;18.20;28.93;100598.03;1790969;80;20986;-70
2022/05/06 09:50:34;;;;;;;5.15;3.10;;;;;;;18.23;28.24;100606.52;1791677;78;21118;-70
2022/05/06 09:53:04;;;;;;;6.33;2.17;;;;;;;18.26;28.73;100602.22;1790024;80;21043;-69
2022/05/06 09:55:41;;;;;;;5.17;1.72;;;;;;;18.28;28.36;100596.29;1785156;80;21122;-71
2022/05/06 09:58:10;;;;;;;4.70;1.92;;;;;;;18.30;28.13;100603.73;1790188;80;20837;-72
2022/05/06 10:00:38;;;;;;;6.92;2.02;;;;;;;18.32;28.45;100599.42;1790786;80;20865;-73
2022/05/06 10:03:09;;;;;;;5.15;1.40;;;;;;;18.42;28.10;100598.75;1767988;80;21040;-70
2022/05/06 10:05:39;;;;;;;2.58;1.70;;;;;;;18.47;28.06;100601.31;1735802;82;20980;-68
2022/05/06 10:08:21;;;;;;;6.78;1.67;;;;;;;18.52;28.08;100594.67;1736047;82;21889;-71
2022/05/06 10:10:57;;;;;;;8.88;2.87;;;;;;;18.58;27.72;100598.85;1735538;82;21043;-70
2022/05/06 10:13:24;;;;;;;4.17;1.87;;;;;;;18.59;27.55;100594.92;1761945;79;21075;-70
2022/05/06 10:15:55;;;;;;;2.45;1.50;;;;;;;18.60;28.46;100602.11;1761321;79;21002;-68
2022/05/06 10:18:43;;;;;;;10.75;2.15;;;;;;;18.69;28.72;100600.03;1796753;79;21034;-71
2022/05/06 10:21:11;;;;;;;8.53;1.75;;;;;;;18.80;28.56;100593.37;1791658;79;21068;-70
2022/05/06 10:23:56;;;;;;;4.83;1.80;;;;;;;18.89;27.43;100595.23;1784147;79;20984;-71
2022/05/06 10:26:47;;;;;;;5.80;2.15;;;;;;;18.89;27.32;100595.23;1766480;79;21067;-72
2022/05/06 10:32:53;;;;;;;5.53;2.55;;;;;;;18.85;27.93;100586.77;1804238;79;21408;-69
2022/05/06 10:35:44;;;;;;;6.83;2.40;;;;;;;18.92;27.77;100581.98;1801283;79;20982;-71
2022/05/06 10:38:20;;;;;;;5.42;1.87;;;;;;;19.02;28.29;100582.08;1748494;79;21463;-69
2022/05/06 10:40:57;;;;;;;10.23;2.20;;;;;;;19.12;28.02;100580.80;1801876;79;21058;-70
2022/05/06 10:43:50;;;;;;;2.98;2.10;;;;;;;19.22;28.44;100580.31;1804396;79;20967;-67
2022/05/06 10:46:37;;;;;;;7.15;1.87;;;;;;;19.32;28.37;100581.78;1793673;79;21422;-72
2022/05/06 10:49:43;;;;;;;5.65;1.90;;;;;;;19.45;28.20;100576.37;1736741;81;21257;-70
2022/05/06 10:52:27;;;;;;;5.75;2.00;;;;;;;19.53;28.07;100565.41;1740763;80;21389;-68
2022/05/06 10:55:01;;;;;;;5.03;2.10;;;;;;;19.56;27.77;100566.91;1784039;79;21008;-70
2022/05/06 10:57:56;;;;;;;7.40;2.05;;;;;;;19.63;27.96;100564.90;1724614;81;21504;-67
2022/05/06 11:00:27;;;;;;;3.45;2.05;;;;;;;19.73;27.86;100561.34;1763999;80;21496;-72
2022/05/06 11:02:58;;;;;;;4.50;1.87;;;;;;;19.84;28.43;100558.23;1765740;80;21156;-69
2022/05/06 11:05:29;;;;;;;4.00;1.70;;;;;;;19.94;27.72;100552.13;1767202;79;21045;-69
2022/05/06 11:08:00;;;;;;;5.80;2.83;;;;;;;20.05;27.76;100543.23;1768008;79;21066;-72
2022/05/06 11:10:39;;;;;;;5.30;2.80;;;;;;;20.10;27.20;100540.16;1773038;79;20984;-72
2022/05/06 11:13:10;;;;;;;22.48;3.70;;;;;;;20.11;26.73;100536.21;1767852;79;20962;-74
2022/05/06 11:15:40;;;;;;;5.58;3.25;;;;;;;20.01;26.05;100498.97;1757169;81;21056;-71
2022/05/06 11:18:07;;;;;;;6.00;1.75;;;;;;;19.83;26.37;100529.48;1765606;80;20992;-74
2022/05/06 11:20:45;;;;;;;8.30;2.55;;;;;;;19.92;26.85;100534.09;1771219;78;21295;-70
2022/05/06 11:23:24;;;;;;;2.87;2.20;;;;;;;20.03;25.82;100525.38;1700193;83;26692;-70
2022/05/06 11:25:55;;;;;;;7.40;2.30;;;;;;;20.07;24.79;100524.11;1756221;81;21082;-68
2022/05/06 11:28:25;;;;;;;8.05;2.65;;;;;;;20.03;25.76;100527.36;1746445;81;21019;-71
2022/05/06 11:30:53;;;;;;;8.88;2.40;;;;;;;20.08;25.61;100523.53;1728056;81;20971;-74
2022/05/06 11:33:31;;;;;;;5.97;2.65;;;;;;;20.15;26.45;100525.09;1755946;81;21098;-62
2022/05/06 11:36:15;;;;;;;5.33;2.30;;;;;;;20.23;25.74;100519.92;1724899;81;20984;-70
2022/05/06 11:38:53;;;;;;;4.53;2.27;;;;;;;20.29;25.57;100524.63;1731452;81;20968;-71
2022/05/06 11:41:27;;;;;;;4.00;2.12;;;;;;;20.34;25.85;100513.17;1758934;81;21692;-71
2022/05/06 11:47:27;;;;;;;3.00;1.80;;;;;;;20.39;25.02;100513.47;1750120;81;20984;-73
2022/05/06 11:47:28;;;;;;;6.62;2.55;;;;;;;20.32;25.80;100508.52;1756790;81;21526;-72
2022/05/06 11:50:00;;;;;;;5.05;2.65;;;;;;;20.31;25.23;100501.30;1727939;80;21024;-71
2022/05/06 11:52:28;;;;;;;5.50;2.30;;;;;;;20.14;25.42;100500.52;1759248;81;21028;-70
2022/05/06 11:55:01;;;;;;;8.80;3.00;;;;;;;20.10;25.92;100500.19;1724762;82;21176;-66
2022/05/06 11:57:29;;;;;;;7.42;2.85;;;;;;;20.17;25.62;100505.39;1741914;81;21155;-67
2022/05/06 12:00:09;;;;;;;5.00;2.42;;;;;;;20.25;25.89;100497.17;1703757;82;21472;-70
2022/05/06 12:02:48;;;;;;;5.33;2.25;;;;;;;20.39;25.20;100494.70;1723617;82;20948;-78
2022/05/06 12:05:19;;;;;;;5.95;2.15;;;;;;;20.41;24.51;100485.36;1724618;82;20876;-73
2022/05/06 12:07:48;;;;;;;3.72;2.25;;;;;;;20.40;24.54;100482.93;1725073;83;21142;-70
2022/05/06 12:10:27;;;;;;;2.72;2.10;;;;;;;20.40;25.64;100489.31;1695508;83;20984;-76
2022/05/06 12:13:11;;;;;;;5.33;2.22;;;;;;;20.49;25.81;100482.73;1758274;80;21000;-70
2022/05/06 12:15:44;;;;;;;6.85;2.50;;;;;;;20.65;25.04;100473.70;1757524;80;21036;-72
2022/05/06 12:18:23;;;;;;;7.72;1.77;;;;;;;20.70;25.13;100478.77;1754766;80;20981;-71
2022/05/06 12:21:01;;;;;;;13.65;2.05;;;;;;;20.76;24.67;100473.91;1747048;79;21043;-73
2022/05/06 12:23:31;;;;;;;2.47;1.52;;;;;;;20.84;25.11;100470.69;1792723;78;20924;-72
2022/05/06 12:26:00;;;;;;;5.00;1.75;;;;;;;20.92;24.17;100475.25;1796226;78;20993;-67